Terminal Aerodrome Forecast
Issued by NWS Grand Junction, CO

Home | Current Version | Previous Version | Text Only | Print | Product List | Glossary On
Versions: 1 2 3 4 5 6 7 8 9 10 11 12 13 14 15 16 17 18 19 20 21 22 23 24 25 26 27 28 29 30 31 32 33 34 35 36 37 38 39 40
000
FTUS45 KGJT 201733
TAFGJT
TAF
KGJT 201733Z 2018/2118 00000KT P6SM OVC130
     FM202100 32005KT P6SM OVC130
     FM210200 12004KT P6SM SCT080 OVC110
     FM211600 18010KT 6SM -SNRA SCT050 BKN070 WS007/21010KT=

USA.gov is the U.S. government's official web portal to all federal, state and local government web resources and services.